createdAt,value
2019-02-17T00:02:30.234Z,102080.98
2019-02-17T00:05:01.126Z,102078.88
2019-02-17T00:07:32.138Z,102069.73
2019-02-17T00:10:03.044Z,102069.23
2019-02-17T00:12:39.027Z,102064.97
2019-02-17T00:15:10.668Z,102072.94
2019-02-17T00:17:41.616Z,102066.05
2019-02-17T00:20:12.537Z,102064.81
2019-02-17T00:22:43.515Z,102063.10
2019-02-17T00:25:14.415Z,102069.33
2019-02-17T00:27:45.344Z,102075.98
2019-02-17T00:30:16.253Z,102072.11
2019-02-17T00:32:47.202Z,102078.77
2019-02-17T00:35:18.104Z,102069.63
2019-02-17T00:37:49.054Z,102074.08
2019-02-17T00:40:19.956Z,102076.31
2019-02-17T00:42:50.889Z,102075.00
2019-02-17T00:45:21.848Z,102073.27
2019-02-17T00:47:52.785Z,102068.00
2019-02-17T00:50:23.702Z,102080.65
2019-02-17T00:52:54.693Z,102082.89
2019-02-17T00:55:25.599Z,102085.52
2019-02-17T00:57:56.537Z,102085.59
2019-02-17T01:00:27.505Z,102092.17
2019-02-17T01:02:58.448Z,102088.28
2019-02-17T01:05:29.355Z,102093.11
2019-02-17T01:08:00.361Z,102090.03
2019-02-17T01:10:31.267Z,102082.64
2019-02-17T01:13:02.225Z,102090.55
2019-02-17T01:15:33.131Z,102096.29
2019-02-17T01:18:04.054Z,102090.61
2019-02-17T01:20:35.765Z,102091.05
2019-02-17T01:23:12.102Z,102091.99
2019-02-17T01:25:45.321Z,102089.41
2019-02-17T01:28:16.249Z,102102.98
2019-02-17T01:30:47.143Z,102096.86
2019-02-17T01:33:18.145Z,102099.38
2019-02-17T01:35:49.046Z,102095.92
2019-02-17T01:38:20.029Z,102096.80
2019-02-17T01:40:50.931Z,102094.23
2019-02-17T01:43:21.893Z,102101.57
2019-02-17T01:45:55.487Z,102102.56
2019-02-17T01:48:26.409Z,102103.33
2019-02-17T01:50:57.319Z,102095.55
2019-02-17T01:53:31.319Z,102089.48
2019-02-17T01:56:02.217Z,102096.06
2019-02-17T01:58:33.152Z,102094.35
2019-02-17T02:01:04.169Z,102096.11
2019-02-17T02:03:37.766Z,102085.15
2019-02-17T02:06:08.664Z,102087.41
2019-02-17T02:08:39.606Z,102093.98
2019-02-17T02:11:13.584Z,102088.72
2019-02-17T02:13:44.612Z,102088.67
2019-02-17T02:16:15.518Z,102090.86
2019-02-17T02:18:50.996Z,102095.67
2019-02-17T02:21:22.850Z,102094.80
2019-02-17T02:23:53.779Z,102102.12
2019-02-17T02:26:24.682Z,102102.37
2019-02-17T02:28:55.623Z,102108.27
2019-02-17T02:31:30.701Z,102103.83
2019-02-17T02:34:03.228Z,102097.10
2019-02-17T02:36:34.130Z,102096.95
2019-02-17T02:39:07.847Z,102092.04
2019-02-17T02:41:38.751Z,102095.80
2019-02-17T02:44:12.152Z,102089.23
2019-02-17T02:46:43.129Z,102099.80
2019-02-17T02:49:14.124Z,102094.56
2019-02-17T02:51:45.027Z,102099.38
2019-02-17T02:54:16.061Z,102095.88
2019-02-17T02:56:46.962Z,102102.45
2019-02-17T02:59:17.900Z,102101.72
2019-02-17T03:01:54.257Z,102093.01
2019-02-17T03:04:21.512Z,102096.18
2019-02-17T03:06:56.988Z,102110.63
2019-02-17T03:09:27.937Z,102113.28
2019-02-17T03:12:00.359Z,102100.55
2019-02-17T03:14:31.286Z,102099.68
2019-02-17T03:17:02.187Z,102094.86
2019-02-17T03:19:33.130Z,102106.75
2019-02-17T03:22:04.099Z,102116.78
2019-02-17T03:24:35.046Z,102122.48
2019-02-17T03:27:05.958Z,102120.33
2019-02-17T03:29:36.889Z,102127.72
2019-02-17T03:32:07.869Z,102125.50
2019-02-17T03:34:38.801Z,102123.26
2019-02-17T03:37:09.761Z,102116.19
2019-02-17T03:39:41.216Z,102121.05
2019-02-17T03:42:12.130Z,102114.03
2019-02-17T03:44:43.141Z,102106.59
2019-02-17T03:47:14.033Z,102104.44
2019-02-17T03:49:44.966Z,102108.84
2019-02-17T03:52:15.864Z,102116.78
2019-02-17T03:54:48.379Z,102112.94
2019-02-17T03:57:20.873Z,102113.88
2019-02-17T03:59:51.826Z,102113.03
2019-02-17T04:02:22.795Z,102119.22
2019-02-17T04:04:53.723Z,102114.84
2019-02-17T04:07:24.627Z,102120.10
2019-02-17T04:09:55.571Z,102130.23
2019-02-17T04:12:26.490Z,102125.79
2019-02-17T04:14:57.416Z,102129.31
2019-02-17T04:17:28.446Z,102126.67
2019-02-17T04:19:59.375Z,102128.98
2019-02-17T04:22:30.273Z,102129.88
2019-02-17T04:25:01.258Z,102137.38
2019-02-17T04:27:32.157Z,102133.82
2019-02-17T04:30:03.306Z,102135.56
2019-02-17T04:32:34.216Z,102132.11
2019-02-17T04:35:05.455Z,102127.80
2019-02-17T04:37:36.357Z,102126.11
2019-02-17T04:40:07.703Z,102125.28
2019-02-17T04:42:38.604Z,102120.59
2019-02-17T04:45:09.529Z,102132.05
2019-02-17T04:47:41.957Z,102129.97
2019-02-17T04:50:12.901Z,102132.59
2019-02-17T04:52:43.817Z,102122.91
2019-02-17T04:55:14.758Z,102127.34
2019-02-17T04:57:45.673Z,102137.43
2019-02-17T05:00:17.691Z,102141.20
2019-02-17T05:02:48.557Z,102148.20
2019-02-17T05:05:19.477Z,102149.84
2019-02-17T05:07:59.215Z,102149.77
2019-02-17T05:10:33.122Z,102153.09
2019-02-17T05:13:04.015Z,102160.05
2019-02-17T05:15:34.977Z,102152.09
2019-02-17T05:18:07.531Z,102155.09
2019-02-17T05:20:38.480Z,102161.17
2019-02-17T05:23:10.296Z,102158.48
2019-02-17T05:25:41.256Z,102169.44
2019-02-17T05:28:12.158Z,102168.52
2019-02-17T05:30:52.124Z,102166.73
2019-02-17T05:33:15.697Z,102175.80
2019-02-17T05:35:46.633Z,102173.12
2019-02-17T05:38:17.542Z,102180.94
2019-02-17T05:40:48.501Z,102180.89
2019-02-17T05:43:19.410Z,102194.05
2019-02-17T05:45:51.933Z,102187.47
2019-02-17T05:48:22.843Z,102191.47
2019-02-17T05:50:53.779Z,102197.98
2019-02-17T05:53:24.693Z,102196.66
2019-02-17T05:55:57.226Z,102203.23
2019-02-17T05:58:28.206Z,102210.19
2019-02-17T06:01:04.130Z,102206.63
2019-02-17T06:03:34.263Z,102216.27
2019-02-17T06:06:08.130Z,102221.84
2019-02-17T06:08:39.029Z,102223.59
2019-02-17T06:11:10.003Z,102221.35
2019-02-17T06:13:40.910Z,102217.41
2019-02-17T06:16:16.260Z,102209.12
2019-02-17T06:18:49.598Z,102211.89
2019-02-17T06:21:20.531Z,102216.34
2019-02-17T06:23:54.229Z,102216.39
2019-02-17T06:26:25.194Z,102229.98
2019-02-17T06:28:56.103Z,102222.52
2019-02-17T06:31:27.042Z,102218.58
2019-02-17T06:33:59.581Z,102221.20
2019-02-17T06:36:30.516Z,102217.72
2019-02-17T06:39:01.418Z,102223.86
2019-02-17T06:41:32.383Z,102217.33
2019-02-17T06:44:03.295Z,102215.19
2019-02-17T06:46:35.891Z,102217.40
2019-02-17T06:49:06.778Z,102214.84
2019-02-17T06:51:37.712Z,102214.82
2019-02-17T06:54:08.606Z,102234.50
2019-02-17T06:56:43.911Z,102239.77
2019-02-17T06:59:14.821Z,102241.90
2019-02-17T07:01:45.826Z,102246.10
2019-02-17T07:04:16.728Z,102239.87
2019-02-17T07:06:49.305Z,102245.79
2019-02-17T07:09:20.201Z,102245.05
2019-02-17T07:11:52.681Z,102248.34
2019-02-17T07:14:23.573Z,102244.72
2019-02-17T07:16:54.505Z,102243.25
2019-02-17T07:19:25.418Z,102244.44
2019-02-17T07:21:56.342Z,102250.89
2019-02-17T07:24:27.251Z,102261.74
2019-02-17T07:27:00.057Z,102255.48
2019-02-17T07:29:35.708Z,102263.22
2019-02-17T07:32:06.362Z,102260.67
2019-02-17T07:34:40.222Z,102259.64
2019-02-17T07:37:11.155Z,102254.63
2019-02-17T07:39:42.064Z,102266.86
2019-02-17T07:42:13.295Z,102273.31
2019-02-17T07:44:44.198Z,102269.36
2019-02-17T07:47:15.131Z,102281.63
2019-02-17T07:49:46.024Z,102278.87
2019-02-17T07:52:16.962Z,102283.13
2019-02-17T07:54:55.377Z,102287.87
2019-02-17T07:57:23.312Z,102292.22
2019-02-17T07:59:54.227Z,102297.09
2019-02-17T08:02:25.153Z,102295.67
2019-02-17T08:04:56.057Z,102311.91
2019-02-17T08:07:26.979Z,102306.64
2019-02-17T08:09:57.895Z,102315.78
2019-02-17T08:12:28.897Z,102314.41
2019-02-17T08:14:59.803Z,102311.72
2019-02-17T08:17:30.741Z,102316.17
2019-02-17T08:20:02.141Z,102321.00
2019-02-17T08:22:33.052Z,102319.23
2019-02-17T08:25:04.551Z,102308.63
2019-02-17T08:27:35.522Z,102323.27
2019-02-17T08:30:09.402Z,102325.51
2019-02-17T08:32:40.332Z,102331.09
2019-02-17T08:35:11.233Z,102331.98
2019-02-17T08:37:42.277Z,102335.70
2019-02-17T08:40:13.215Z,102334.44
2019-02-17T08:42:47.138Z,102333.89
2019-02-17T08:45:18.030Z,102331.17
2019-02-17T08:47:48.966Z,102321.87
2019-02-17T08:50:20.180Z,102329.72
2019-02-17T08:52:51.274Z,102317.33
2019-02-17T08:55:22.175Z,102314.27
2019-02-17T08:57:55.935Z,102316.75
2019-02-17T09:00:26.909Z,102309.81
2019-02-17T09:02:57.833Z,102320.28
2019-02-17T09:05:30.203Z,102318.45
2019-02-17T09:08:01.226Z,102320.22
2019-02-17T09:10:32.282Z,102322.27
2019-02-17T09:13:03.359Z,102326.52
2019-02-17T09:15:35.208Z,102321.83
2019-02-17T09:18:06.170Z,102322.64
2019-02-17T09:20:39.957Z,102322.88
2019-02-17T09:23:12.571Z,102320.15
2019-02-17T09:25:43.567Z,102314.20
2019-02-17T09:28:14.647Z,102320.66
2019-02-17T09:30:47.133Z,102324.02
2019-02-17T09:33:18.078Z,102330.70
2019-02-17T09:35:48.989Z,102330.87
2019-02-17T09:38:19.897Z,102336.12
2019-02-17T09:40:53.755Z,102333.22
2019-02-17T09:43:24.725Z,102332.69
2019-02-17T09:45:55.618Z,102329.97
2019-02-17T09:48:26.539Z,102323.77
2019-02-17T09:50:57.445Z,102325.72
2019-02-17T09:53:28.395Z,102329.92
2019-02-17T09:56:00.186Z,102327.89
2019-02-17T09:58:31.139Z,102334.83
2019-02-17T10:01:02.054Z,102338.27
2019-02-17T10:03:32.987Z,102344.59
2019-02-17T10:06:03.894Z,102343.84
2019-02-17T10:08:34.834Z,102342.61
2019-02-17T10:11:05.820Z,102350.11
2019-02-17T10:13:39.725Z,102351.77
2019-02-17T10:16:10.629Z,102350.53
2019-02-17T10:18:41.572Z,102357.43
2019-02-17T10:21:12.474Z,102350.83
2019-02-17T10:23:43.418Z,102351.04
2019-02-17T10:26:14.327Z,102354.74
2019-02-17T10:28:45.290Z,102344.58
2019-02-17T10:31:16.203Z,102353.81
2019-02-17T10:33:47.131Z,102341.05
2019-02-17T10:36:18.053Z,102347.13
2019-02-17T10:38:49.002Z,102346.06
2019-02-17T10:41:19.924Z,102347.30
2019-02-17T10:43:50.891Z,102345.64
2019-02-17T10:46:21.804Z,102347.22
2019-02-17T10:48:52.734Z,102348.40
2019-02-17T10:51:23.651Z,102348.10
2019-02-17T10:53:54.587Z,102350.53
2019-02-17T10:56:25.494Z,102351.34
2019-02-17T10:58:56.492Z,102348.83
2019-02-17T11:01:27.398Z,102352.13
2019-02-17T11:04:03.714Z,102352.06
2019-02-17T11:06:34.637Z,102339.89
2019-02-17T11:09:08.520Z,102351.77
2019-02-17T11:11:39.438Z,102349.48
2019-02-17T11:14:10.397Z,102341.42
2019-02-17T11:16:41.377Z,102351.89
2019-02-17T11:19:12.320Z,102353.09
2019-02-17T11:21:43.235Z,102348.74
2019-02-17T11:24:14.172Z,102358.87
2019-02-17T11:26:45.157Z,102356.21
2019-02-17T11:29:16.223Z,102355.64
2019-02-17T11:31:47.127Z,102353.00
2019-02-17T11:34:18.087Z,102359.51
2019-02-17T11:36:49.032Z,102357.23
2019-02-17T11:39:20.154Z,102351.80
2019-02-17T11:41:51.083Z,102356.14
2019-02-17T11:44:22.036Z,102354.64
2019-02-17T11:46:52.952Z,102354.42
2019-02-17T11:49:23.892Z,102349.36
2019-02-17T11:51:54.816Z,102349.96
2019-02-17T11:54:25.762Z,102365.45
2019-02-17T11:56:56.739Z,102366.11
2019-02-17T11:59:27.694Z,102372.59
2019-02-17T12:01:58.600Z,102371.48
2019-02-17T12:04:29.604Z,102373.45
2019-02-17T12:07:00.583Z,102365.98
2019-02-17T12:09:31.584Z,102377.36
2019-02-17T12:12:04.098Z,102370.40
2019-02-17T12:14:35.067Z,102370.37
2019-02-17T12:17:05.972Z,102370.97
2019-02-17T12:19:36.922Z,102377.06
2019-02-17T12:22:12.185Z,102377.06
2019-02-17T12:24:46.005Z,102382.76
2019-02-17T12:27:21.795Z,102387.23
2019-02-17T12:29:54.338Z,102381.83
2019-02-17T12:32:26.885Z,102386.48
2019-02-17T12:35:02.199Z,102381.08
2019-02-17T12:37:33.114Z,102379.48
2019-02-17T12:40:05.367Z,102377.38
2019-02-17T12:42:36.617Z,102378.19
2019-02-17T12:45:10.571Z,102375.52
2019-02-17T12:47:41.482Z,102377.16
2019-02-17T12:50:12.731Z,102374.47
2019-02-17T12:52:47.065Z,102375.77
2019-02-17T12:55:16.299Z,102369.67
2019-02-17T12:57:47.220Z,102375.20
2019-02-17T13:00:18.783Z,102377.20
2019-02-17T13:02:49.691Z,102381.83
2019-02-17T13:05:20.630Z,102380.36
2019-02-17T13:07:51.532Z,102382.55
2019-02-17T13:10:22.487Z,102385.78
2019-02-17T13:12:53.393Z,102379.77
2019-02-17T13:15:24.349Z,102388.28
2019-02-17T13:17:55.259Z,102388.11
2019-02-17T13:20:26.207Z,102403.20
2019-02-17T13:22:57.132Z,102392.06
2019-02-17T13:25:28.066Z,102392.70
2019-02-17T13:28:00.615Z,102399.57
2019-02-17T13:30:31.887Z,102402.48
2019-02-17T13:33:02.773Z,102402.24
2019-02-17T13:35:33.705Z,102399.81
2019-02-17T13:38:04.609Z,102400.26
2019-02-17T13:40:35.545Z,102401.33
2019-02-17T13:43:06.450Z,102401.33
2019-02-17T13:45:37.497Z,102400.63
2019-02-17T13:48:14.094Z,102399.20
2019-02-17T13:50:45.031Z,102402.39
2019-02-17T13:53:17.399Z,102401.44
2019-02-17T13:55:48.337Z,102395.22
2019-02-17T13:58:19.233Z,102392.96
2019-02-17T14:00:50.178Z,102390.70
2019-02-17T14:03:21.081Z,102396.36
2019-02-17T14:05:52.063Z,102398.84
2019-02-17T14:08:25.640Z,102407.52
2019-02-17T14:10:56.597Z,102402.55
2019-02-17T14:13:27.496Z,102405.19
2019-02-17T14:15:58.461Z,102397.65
2019-02-17T14:18:29.366Z,102406.52
2019-02-17T14:21:00.293Z,102404.69
2019-02-17T14:23:31.248Z,102403.48
2019-02-17T14:26:02.172Z,102406.20
2019-02-17T14:28:33.889Z,102403.11
2019-02-17T14:31:06.365Z,102405.30
2019-02-17T14:33:40.347Z,102401.81
2019-02-17T14:36:14.364Z,102402.24
2019-02-17T14:38:45.266Z,102397.52
2019-02-17T14:41:16.210Z,102400.61
2019-02-17T14:43:47.108Z,102393.20
2019-02-17T14:46:18.056Z,102387.42
2019-02-17T14:48:48.961Z,102388.74
2019-02-17T14:51:19.894Z,102394.41
2019-02-17T14:53:50.794Z,102392.20
2019-02-17T14:56:21.727Z,102391.95
2019-02-17T14:58:52.631Z,102387.31
2019-02-17T15:01:23.664Z,102388.66
2019-02-17T15:03:54.575Z,102386.97
2019-02-17T15:06:25.504Z,102388.34
2019-02-17T15:08:56.404Z,102388.39
2019-02-17T15:11:27.336Z,102389.41
2019-02-17T15:13:58.242Z,102389.09
2019-02-17T15:16:29.313Z,102392.35
2019-02-17T15:19:00.600Z,102383.65
2019-02-17T15:21:31.538Z,102382.51
2019-02-17T15:24:02.453Z,102380.00
2019-02-17T15:26:33.374Z,102383.64
2019-02-17T15:29:04.283Z,102381.63
2019-02-17T15:31:35.235Z,102388.66
2019-02-17T15:34:06.133Z,102379.70
2019-02-17T15:36:37.063Z,102386.38
2019-02-17T15:39:08.277Z,102382.87
2019-02-17T15:41:42.157Z,102378.60
2019-02-17T15:44:14.721Z,102383.38
2019-02-17T15:46:45.856Z,102384.75
2019-02-17T15:49:18.601Z,102379.72
2019-02-17T15:51:49.464Z,102380.71
2019-02-17T15:54:20.361Z,102377.16
2019-02-17T15:56:55.834Z,102372.83
2019-02-17T15:59:26.738Z,102384.12
2019-02-17T16:01:57.675Z,102383.09
2019-02-17T16:04:28.937Z,102379.13
2019-02-17T16:06:59.983Z,102373.05
2019-02-17T16:09:30.892Z,102373.17
2019-02-17T16:12:01.813Z,102379.25
2019-02-17T16:14:32.731Z,102375.41
2019-02-17T16:17:03.697Z,102372.28
2019-02-17T16:19:34.675Z,102377.61
2019-02-17T16:22:05.603Z,102374.64
2019-02-17T16:24:36.531Z,102383.48
2019-02-17T16:27:07.466Z,102386.93
2019-02-17T16:29:38.374Z,102388.20
2019-02-17T16:32:09.338Z,102389.02
2019-02-17T16:34:40.246Z,102385.61
2019-02-17T16:37:11.174Z,102389.52
2019-02-17T16:39:42.083Z,102391.75
2019-02-17T16:42:13.012Z,102396.53
2019-02-17T16:44:43.913Z,102399.70
2019-02-17T16:47:14.873Z,102405.41
2019-02-17T16:49:45.777Z,102400.13
2019-02-17T16:52:16.705Z,102397.90
2019-02-17T16:54:47.596Z,102402.40
2019-02-17T16:57:18.524Z,102401.91
2019-02-17T16:59:49.423Z,102409.34
2019-02-17T17:02:20.379Z,102414.61
2019-02-17T17:04:51.281Z,102417.57
2019-02-17T17:07:22.217Z,102415.33
2019-02-17T17:09:53.183Z,102410.13
2019-02-17T17:12:24.911Z,102415.77
2019-02-17T17:14:55.895Z,102417.08
2019-02-17T17:17:26.871Z,102413.75
2019-02-17T17:19:57.848Z,102419.38
2019-02-17T17:22:28.862Z,102418.91
2019-02-17T17:24:59.866Z,102411.01
2019-02-17T17:27:30.796Z,102412.75
2019-02-17T17:30:03.467Z,102403.16
2019-02-17T17:32:34.526Z,102404.41
2019-02-17T17:35:07.528Z,102398.33
2019-02-17T17:37:39.075Z,102401.45
2019-02-17T17:40:17.527Z,102404.97
2019-02-17T17:42:51.156Z,102405.03
2019-02-17T17:45:22.647Z,102405.50
2019-02-17T17:47:53.599Z,102399.86
2019-02-17T17:50:24.498Z,102399.43
2019-02-17T17:52:55.436Z,102402.89
2019-02-17T17:55:28.436Z,102402.89
2019-02-17T17:57:58.964Z,102401.57
2019-02-17T18:00:31.508Z,102402.49
2019-02-17T18:03:02.608Z,102408.20
2019-02-17T18:05:33.509Z,102399.98
2019-02-17T18:08:04.519Z,102392.97
2019-02-17T18:10:35.481Z,102392.70
2019-02-17T18:13:06.413Z,102395.38
2019-02-17T18:15:40.255Z,102399.05
2019-02-17T18:18:11.229Z,102396.53
2019-02-17T18:20:42.139Z,102404.91
2019-02-17T18:23:14.593Z,102398.42
2019-02-17T18:25:45.493Z,102398.14
2019-02-17T18:28:16.431Z,102397.28
2019-02-17T18:30:47.337Z,102403.89
2019-02-17T18:33:18.304Z,102400.05
2019-02-17T18:35:49.210Z,102415.34
2019-02-17T18:38:20.149Z,102423.27
2019-02-17T18:40:51.050Z,102411.94
2019-02-17T18:43:21.987Z,102414.94
2019-02-17T18:45:52.887Z,102417.53
2019-02-17T18:48:23.865Z,102415.44
2019-02-17T18:50:59.109Z,102412.41
2019-02-17T18:53:27.400Z,102414.08
2019-02-17T18:55:58.307Z,102414.99
2019-02-17T18:58:29.253Z,102412.41
2019-02-17T19:01:00.213Z,102409.79
2019-02-17T19:03:31.203Z,102416.84
2019-02-17T19:06:02.109Z,102408.22
2019-02-17T19:08:33.056Z,102403.95
2019-02-17T19:11:03.958Z,102409.20
2019-02-17T19:13:34.904Z,102412.80
2019-02-17T19:16:05.807Z,102418.14
2019-02-17T19:18:36.775Z,102411.66
2019-02-17T19:21:07.673Z,102411.72
2019-02-17T19:23:38.601Z,102415.70
2019-02-17T19:26:09.522Z,102418.86
2019-02-17T19:28:40.452Z,102417.15
2019-02-17T19:31:11.493Z,102420.26
2019-02-17T19:33:45.576Z,102424.67
2019-02-17T19:36:16.500Z,102425.16
2019-02-17T19:38:47.430Z,102429.55
2019-02-17T19:41:18.324Z,102432.55
2019-02-17T19:43:51.953Z,102429.94
2019-02-17T19:46:22.857Z,102426.78
2019-02-17T19:48:53.818Z,102428.01
2019-02-17T19:51:24.726Z,102431.42
2019-02-17T19:53:55.735Z,102432.73
2019-02-17T19:56:26.637Z,102426.56
2019-02-17T19:58:57.580Z,102425.28
2019-02-17T20:01:28.547Z,102419.64
2019-02-17T20:04:19.428Z,102423.67
2019-02-17T20:06:50.399Z,102432.03
2019-02-17T20:09:21.335Z,102429.02
2019-02-17T20:11:52.501Z,102435.23
2019-02-17T20:14:24.141Z,102424.77
2019-02-17T20:16:55.039Z,102423.05
2019-02-17T20:19:26.013Z,102426.56
2019-02-17T20:21:56.907Z,102431.86
2019-02-17T20:24:27.833Z,102431.50
2019-02-17T20:26:58.736Z,102440.70
2019-02-17T20:29:29.665Z,102446.83
2019-02-17T20:32:00.716Z,102446.86
2019-02-17T20:34:31.687Z,102439.78
2019-02-17T20:37:02.588Z,102441.48
2019-02-17T20:39:33.517Z,102443.16
2019-02-17T20:42:04.426Z,102443.55
2019-02-17T20:44:35.363Z,102437.91
2019-02-17T20:47:06.264Z,102440.61
2019-02-17T20:49:40.150Z,102435.76
2019-02-17T20:52:11.468Z,102435.80
2019-02-17T20:54:42.399Z,102439.78
2019-02-17T20:57:13.329Z,102447.63
2019-02-17T20:59:44.240Z,102456.38
2019-02-17T21:02:15.135Z,102451.11
2019-02-17T21:04:46.454Z,102448.94
2019-02-17T21:07:17.353Z,102445.43
2019-02-17T21:09:48.296Z,102445.83
2019-02-17T21:12:19.275Z,102450.68
2019-02-17T21:14:50.215Z,102453.70
2019-02-17T21:17:21.116Z,102451.03
2019-02-17T21:19:52.182Z,102447.53
2019-02-17T21:22:23.765Z,102449.24
2019-02-17T21:24:55.459Z,102442.68
2019-02-17T21:27:26.383Z,102432.25
2019-02-17T21:29:57.309Z,102434.44
2019-02-17T21:32:28.211Z,102438.42
2019-02-17T21:34:59.165Z,102441.13
2019-02-17T21:37:30.071Z,102439.86
2019-02-17T21:40:01.010Z,102441.66
2019-02-17T21:42:31.916Z,102443.53
2019-02-17T21:45:02.843Z,102450.53
2019-02-17T21:47:33.746Z,102447.95
2019-02-17T21:50:07.392Z,102435.77
2019-02-17T21:52:38.295Z,102431.48
2019-02-17T21:55:10.523Z,102427.66
2019-02-17T21:57:41.510Z,102426.82
2019-02-17T22:00:20.031Z,102433.46
2019-02-17T22:02:50.934Z,102428.73
2019-02-17T22:05:21.901Z,102425.70
2019-02-17T22:07:52.807Z,102422.68
2019-02-17T22:10:26.681Z,102428.48
2019-02-17T22:12:59.231Z,102427.72
2019-02-17T22:15:32.866Z,102420.31
2019-02-17T22:18:03.772Z,102423.48
2019-02-17T22:20:34.761Z,102427.93
2019-02-17T22:23:05.660Z,102430.59
2019-02-17T22:25:37.094Z,102426.72
2019-02-17T22:28:08.020Z,102419.77
2019-02-17T22:30:38.941Z,102419.36
2019-02-17T22:33:09.848Z,102423.80
2019-02-17T22:35:43.340Z,102421.58
2019-02-17T22:38:14.332Z,102414.18
2019-02-17T22:40:45.269Z,102417.71
2019-02-17T22:43:16.168Z,102414.28
2019-02-17T22:45:47.104Z,102424.33
2019-02-17T22:48:18.008Z,102426.58
2019-02-17T22:50:48.982Z,102432.77
2019-02-17T22:53:19.886Z,102433.67
2019-02-17T22:55:50.818Z,102437.23
2019-02-17T22:58:21.729Z,102438.16
2019-02-17T23:01:00.167Z,102434.70
2019-02-17T23:03:31.483Z,102437.79
2019-02-17T23:06:02.558Z,102436.06
2019-02-17T23:08:33.571Z,102435.25
2019-02-17T23:11:06.128Z,102426.98
2019-02-17T23:13:38.135Z,102437.02
2019-02-17T23:16:10.556Z,102440.98
2019-02-17T23:18:41.464Z,102445.38
2019-02-17T23:21:12.423Z,102452.37
2019-02-17T23:23:44.976Z,102455.02
2019-02-17T23:26:18.943Z,102465.06
2019-02-17T23:28:49.846Z,102464.59
2019-02-17T23:31:25.268Z,102462.80
2019-02-17T23:33:56.179Z,102467.58
2019-02-17T23:36:27.202Z,102458.78
2019-02-17T23:38:58.104Z,102455.23
2019-02-17T23:41:31.572Z,102460.82
2019-02-17T23:44:01.643Z,102468.56
2019-02-17T23:46:32.586Z,102467.66
2019-02-17T23:49:03.482Z,102467.13
2019-02-17T23:51:37.450Z,102469.25
2019-02-17T23:54:08.354Z,102474.47
2019-02-17T23:56:39.298Z,102466.56
2019-02-17T23:59:11.853Z,102472.66
